sensor_id;sensor_type;location;lat;lon;timestamp;temperature;humidity
16511;DHT22;8368;48.772;8.754;2023-04-03T00:00:24;2.50;99.90
16511;DHT22;8368;48.772;8.754;2023-04-03T00:02:50;2.50;99.90
16511;DHT22;8368;48.772;8.754;2023-04-03T00:05:16;2.50;99.90
16511;DHT22;8368;48.772;8.754;2023-04-03T00:07:41;2.50;99.90
16511;DHT22;8368;48.772;8.754;2023-04-03T00:10:07;2.50;99.90
16511;DHT22;8368;48.772;8.754;2023-04-03T00:12:33;2.50;99.90
16511;DHT22;8368;48.772;8.754;2023-04-03T00:14:58;2.50;99.90
16511;DHT22;8368;48.772;8.754;2023-04-03T00:17:25;2.50;99.90
16511;DHT22;8368;48.772;8.754;2023-04-03T00:19:50;2.60;99.90
16511;DHT22;8368;48.772;8.754;2023-04-03T00:22:16;2.60;99.90
16511;DHT22;8368;48.772;8.754;2023-04-03T00:24:41;2.60;99.90
16511;DHT22;8368;48.772;8.754;2023-04-03T00:27:07;2.60;99.90
16511;DHT22;8368;48.772;8.754;2023-04-03T00:29:32;2.60;99.90
16511;DHT22;8368;48.772;8.754;2023-04-03T00:31:58;2.70;99.90
16511;DHT22;8368;48.772;8.754;2023-04-03T00:34:24;2.70;99.90
16511;DHT22;8368;48.772;8.754;2023-04-03T00:36:49;2.70;99.90
16511;DHT22;8368;48.772;8.754;2023-04-03T00:39:16;2.60;99.90
16511;DHT22;8368;48.772;8.754;2023-04-03T00:41:42;2.60;99.90
16511;DHT22;8368;48.772;8.754;2023-04-03T00:47:13;2.50;99.90
16511;DHT22;8368;48.772;8.754;2023-04-03T00:49:42;2.50;99.90
16511;DHT22;8368;48.772;8.754;2023-04-03T00:52:12;2.60;99.90
16511;DHT22;8368;48.772;8.754;2023-04-03T00:54:41;2.60;99.90
16511;DHT22;8368;48.772;8.754;2023-04-03T00:57:08;2.60;99.90
16511;DHT22;8368;48.772;8.754;2023-04-03T00:59:38;2.50;99.90
16511;DHT22;8368;48.772;8.754;2023-04-03T01:02:06;2.50;99.90
16511;DHT22;8368;48.772;8.754;2023-04-03T01:04:40;2.50;99.90
16511;DHT22;8368;48.772;8.754;2023-04-03T01:07:10;2.50;99.90
16511;DHT22;8368;48.772;8.754;2023-04-03T01:09:38;2.50;99.90
16511;DHT22;8368;48.772;8.754;2023-04-03T01:12:32;2.40;99.90
16511;DHT22;8368;48.772;8.754;2023-04-03T01:15:30;2.40;99.90
16511;DHT22;8368;48.772;8.754;2023-04-03T01:18:00;2.30;99.90
16511;DHT22;8368;48.772;8.754;2023-04-03T01:25:41;2.20;99.90
16511;DHT22;8368;48.772;8.754;2023-04-03T01:28:13;2.20;99.90
16511;DHT22;8368;48.772;8.754;2023-04-03T01:31:12;2.20;99.90
16511;DHT22;8368;48.772;8.754;2023-04-03T01:33:38;2.20;99.90
16511;DHT22;8368;48.772;8.754;2023-04-03T01:36:04;2.10;99.90
16511;DHT22;8368;48.772;8.754;2023-04-03T01:38:30;2.10;99.90
16511;DHT22;8368;48.772;8.754;2023-04-03T01:40:56;2.10;99.90
16511;DHT22;8368;48.772;8.754;2023-04-03T01:43:22;2.10;99.90
16511;DHT22;8368;48.772;8.754;2023-04-03T01:45:47;2.10;99.90
16511;DHT22;8368;48.772;8.754;2023-04-03T01:48:14;2.00;99.90
16511;DHT22;8368;48.772;8.754;2023-04-03T01:50:40;2.00;99.90
16511;DHT22;8368;48.772;8.754;2023-04-03T01:53:06;2.00;99.90
16511;DHT22;8368;48.772;8.754;2023-04-03T01:55:32;2.00;99.90
16511;DHT22;8368;48.772;8.754;2023-04-03T01:57:57;2.00;99.90
16511;DHT22;8368;48.772;8.754;2023-04-03T02:00:23;2.00;99.90
16511;DHT22;8368;48.772;8.754;2023-04-03T02:02:48;2.00;99.90
16511;DHT22;8368;48.772;8.754;2023-04-03T02:05:14;2.00;99.90
16511;DHT22;8368;48.772;8.754;2023-04-03T02:07:39;2.00;99.90
16511;DHT22;8368;48.772;8.754;2023-04-03T02:10:05;2.00;99.90
16511;DHT22;8368;48.772;8.754;2023-04-03T02:12:31;1.90;99.90
16511;DHT22;8368;48.772;8.754;2023-04-03T02:14:57;2.00;99.90
16511;DHT22;8368;48.772;8.754;2023-04-03T02:17:22;2.00;99.90
16511;DHT22;8368;48.772;8.754;2023-04-03T02:19:48;1.90;99.90
16511;DHT22;8368;48.772;8.754;2023-04-03T02:22:13;1.90;99.90
16511;DHT22;8368;48.772;8.754;2023-04-03T02:24:39;1.90;99.90
16511;DHT22;8368;48.772;8.754;2023-04-03T02:27:05;1.90;99.90
16511;DHT22;8368;48.772;8.754;2023-04-03T02:29:31;1.90;99.90
16511;DHT22;8368;48.772;8.754;2023-04-03T02:31:56;1.80;99.90
16511;DHT22;8368;48.772;8.754;2023-04-03T02:34:22;1.90;99.90
16511;DHT22;8368;48.772;8.754;2023-04-03T02:36:47;1.90;99.90
16511;DHT22;8368;48.772;8.754;2023-04-03T02:39:13;1.90;99.90
16511;DHT22;8368;48.772;8.754;2023-04-03T02:41:39;1.90;99.90
16511;DHT22;8368;48.772;8.754;2023-04-03T02:44:06;1.80;99.90
16511;DHT22;8368;48.772;8.754;2023-04-03T02:46:32;1.90;99.90
16511;DHT22;8368;48.772;8.754;2023-04-03T02:48:58;1.80;99.90
16511;DHT22;8368;48.772;8.754;2023-04-03T02:51:24;1.80;99.90
16511;DHT22;8368;48.772;8.754;2023-04-03T02:53:50;1.80;99.90
16511;DHT22;8368;48.772;8.754;2023-04-03T02:56:16;1.80;99.90
16511;DHT22;8368;48.772;8.754;2023-04-03T02:58:42;1.80;99.90
16511;DHT22;8368;48.772;8.754;2023-04-03T03:01:08;1.80;99.90
16511;DHT22;8368;48.772;8.754;2023-04-03T03:03:33;1.80;99.90
16511;DHT22;8368;48.772;8.754;2023-04-03T03:06:08;1.80;99.90
16511;DHT22;8368;48.772;8.754;2023-04-03T03:08:35;1.70;99.90
16511;DHT22;8368;48.772;8.754;2023-04-03T03:11:01;1.70;99.90
16511;DHT22;8368;48.772;8.754;2023-04-03T03:13:26;1.70;99.90
16511;DHT22;8368;48.772;8.754;2023-04-03T03:15:52;1.70;99.90
16511;DHT22;8368;48.772;8.754;2023-04-03T03:18:18;1.70;99.90
16511;DHT22;8368;48.772;8.754;2023-04-03T03:20:43;1.60;99.90
16511;DHT22;8368;48.772;8.754;2023-04-03T03:23:09;1.60;99.90
16511;DHT22;8368;48.772;8.754;2023-04-03T03:25:41;1.70;99.90
16511;DHT22;8368;48.772;8.754;2023-04-03T03:28:07;1.60;99.90
16511;DHT22;8368;48.772;8.754;2023-04-03T03:30:33;1.70;99.90
16511;DHT22;8368;48.772;8.754;2023-04-03T03:32:58;1.50;99.90
16511;DHT22;8368;48.772;8.754;2023-04-03T03:35:24;1.50;99.90
16511;DHT22;8368;48.772;8.754;2023-04-03T03:37:49;1.50;99.90
16511;DHT22;8368;48.772;8.754;2023-04-03T03:40:15;1.50;99.90
16511;DHT22;8368;48.772;8.754;2023-04-03T03:42:41;1.50;99.90
16511;DHT22;8368;48.772;8.754;2023-04-03T03:45:07;1.50;99.90
16511;DHT22;8368;48.772;8.754;2023-04-03T03:47:32;1.50;99.90
16511;DHT22;8368;48.772;8.754;2023-04-03T03:49:58;1.50;99.90
16511;DHT22;8368;48.772;8.754;2023-04-03T03:52:24;1.60;99.90
16511;DHT22;8368;48.772;8.754;2023-04-03T03:54:50;1.60;99.90
16511;DHT22;8368;48.772;8.754;2023-04-03T03:57:16;1.50;99.90
16511;DHT22;8368;48.772;8.754;2023-04-03T03:59:42;1.60;99.90
16511;DHT22;8368;48.772;8.754;2023-04-03T04:02:09;1.60;99.90
16511;DHT22;8368;48.772;8.754;2023-04-03T04:04:35;1.60;99.90
16511;DHT22;8368;48.772;8.754;2023-04-03T04:07:00;1.60;99.90
16511;DHT22;8368;48.772;8.754;2023-04-03T04:09:26;1.60;99.90
16511;DHT22;8368;48.772;8.754;2023-04-03T04:11:52;1.70;99.90
16511;DHT22;8368;48.772;8.754;2023-04-03T04:14:18;1.70;99.90
16511;DHT22;8368;48.772;8.754;2023-04-03T04:16:46;1.70;99.90
16511;DHT22;8368;48.772;8.754;2023-04-03T04:19:11;1.80;99.90
16511;DHT22;8368;48.772;8.754;2023-04-03T04:21:37;1.80;99.90
16511;DHT22;8368;48.772;8.754;2023-04-03T04:24:03;1.80;99.90
16511;DHT22;8368;48.772;8.754;2023-04-03T04:26:28;1.70;99.90
16511;DHT22;8368;48.772;8.754;2023-04-03T04:28:54;1.70;99.90
16511;DHT22;8368;48.772;8.754;2023-04-03T04:31:19;1.80;99.90
16511;DHT22;8368;48.772;8.754;2023-04-03T04:33:45;1.70;99.90
16511;DHT22;8368;48.772;8.754;2023-04-03T04:36:10;1.70;99.90
16511;DHT22;8368;48.772;8.754;2023-04-03T04:38:36;1.70;99.90
16511;DHT22;8368;48.772;8.754;2023-04-03T04:41:01;1.70;99.90
16511;DHT22;8368;48.772;8.754;2023-04-03T04:43:27;1.70;99.90
16511;DHT22;8368;48.772;8.754;2023-04-03T04:46:09;1.80;99.90
16511;DHT22;8368;48.772;8.754;2023-04-03T04:48:38;1.90;99.90
16511;DHT22;8368;48.772;8.754;2023-04-03T04:51:04;1.90;99.90
16511;DHT22;8368;48.772;8.754;2023-04-03T04:53:30;1.80;99.90
16511;DHT22;8368;48.772;8.754;2023-04-03T04:55:55;1.80;99.90
16511;DHT22;8368;48.772;8.754;2023-04-03T04:58:21;1.80;99.90
16511;DHT22;8368;48.772;8.754;2023-04-03T05:00:47;1.80;99.90
16511;DHT22;8368;48.772;8.754;2023-04-03T05:03:12;1.80;99.90
16511;DHT22;8368;48.772;8.754;2023-04-03T05:05:38;1.80;99.90
16511;DHT22;8368;48.772;8.754;2023-04-03T05:08:04;1.80;99.90
16511;DHT22;8368;48.772;8.754;2023-04-03T05:10:30;1.80;99.90
16511;DHT22;8368;48.772;8.754;2023-04-03T05:12:57;1.90;99.90
16511;DHT22;8368;48.772;8.754;2023-04-03T05:15:22;1.80;99.90
16511;DHT22;8368;48.772;8.754;2023-04-03T05:17:48;1.80;99.90
16511;DHT22;8368;48.772;8.754;2023-04-03T05:20:13;1.80;99.90
16511;DHT22;8368;48.772;8.754;2023-04-03T05:22:39;1.90;99.90
16511;DHT22;8368;48.772;8.754;2023-04-03T05:25:05;1.90;99.90
16511;DHT22;8368;48.772;8.754;2023-04-03T05:27:31;1.90;99.90
16511;DHT22;8368;48.772;8.754;2023-04-03T05:29:57;1.90;99.90
16511;DHT22;8368;48.772;8.754;2023-04-03T05:32:24;1.90;99.90
16511;DHT22;8368;48.772;8.754;2023-04-03T05:34:51;1.90;99.90
16511;DHT22;8368;48.772;8.754;2023-04-03T05:37:17;2.00;99.90
16511;DHT22;8368;48.772;8.754;2023-04-03T05:39:42;2.00;99.90
16511;DHT22;8368;48.772;8.754;2023-04-03T05:42:08;2.10;99.90
16511;DHT22;8368;48.772;8.754;2023-04-03T05:44:33;2.10;99.90
16511;DHT22;8368;48.772;8.754;2023-04-03T05:46:59;2.00;99.90
16511;DHT22;8368;48.772;8.754;2023-04-03T05:49:25;2.10;99.90
16511;DHT22;8368;48.772;8.754;2023-04-03T05:51:51;2.10;99.90
16511;DHT22;8368;48.772;8.754;2023-04-03T05:54:25;2.20;99.90
16511;DHT22;8368;48.772;8.754;2023-04-03T05:56:51;2.20;99.90
16511;DHT22;8368;48.772;8.754;2023-04-03T05:59:18;2.20;99.90
16511;DHT22;8368;48.772;8.754;2023-04-03T06:01:43;2.40;99.90
16511;DHT22;8368;48.772;8.754;2023-04-03T06:04:09;2.40;99.90
16511;DHT22;8368;48.772;8.754;2023-04-03T06:06:55;2.40;99.90
16511;DHT22;8368;48.772;8.754;2023-04-03T06:09:23;2.40;99.90
16511;DHT22;8368;48.772;8.754;2023-04-03T06:11:49;2.40;99.90
16511;DHT22;8368;48.772;8.754;2023-04-03T06:14:15;2.50;99.90
16511;DHT22;8368;48.772;8.754;2023-04-03T06:16:41;2.60;99.90
16511;DHT22;8368;48.772;8.754;2023-04-03T06:19:10;2.50;99.90
16511;DHT22;8368;48.772;8.754;2023-04-03T06:21:36;2.50;99.90
16511;DHT22;8368;48.772;8.754;2023-04-03T06:24:05;2.50;99.90
16511;DHT22;8368;48.772;8.754;2023-04-03T06:26:31;2.60;99.90
16511;DHT22;8368;48.772;8.754;2023-04-03T06:28:57;2.60;99.90
16511;DHT22;8368;48.772;8.754;2023-04-03T06:31:23;2.70;99.90
16511;DHT22;8368;48.772;8.754;2023-04-03T06:33:49;2.70;99.90
16511;DHT22;8368;48.772;8.754;2023-04-03T06:36:15;2.70;99.90
16511;DHT22;8368;48.772;8.754;2023-04-03T06:38:45;2.70;99.90
16511;DHT22;8368;48.772;8.754;2023-04-03T06:41:10;2.70;99.90
16511;DHT22;8368;48.772;8.754;2023-04-03T06:43:36;2.70;99.90
16511;DHT22;8368;48.772;8.754;2023-04-03T06:46:02;2.70;99.90
16511;DHT22;8368;48.772;8.754;2023-04-03T06:48:27;2.70;99.90
16511;DHT22;8368;48.772;8.754;2023-04-03T06:50:53;2.80;99.90
16511;DHT22;8368;48.772;8.754;2023-04-03T06:53:19;2.80;99.90
16511;DHT22;8368;48.772;8.754;2023-04-03T06:55:44;2.90;99.90
16511;DHT22;8368;48.772;8.754;2023-04-03T06:58:10;3.00;99.90
16511;DHT22;8368;48.772;8.754;2023-04-03T07:00:36;3.00;99.90
16511;DHT22;8368;48.772;8.754;2023-04-03T07:03:01;3.20;99.90
16511;DHT22;8368;48.772;8.754;2023-04-03T07:05:27;3.30;99.90
16511;DHT22;8368;48.772;8.754;2023-04-03T07:07:53;3.30;99.90
16511;DHT22;8368;48.772;8.754;2023-04-03T07:10:19;3.40;99.90
16511;DHT22;8368;48.772;8.754;2023-04-03T07:12:44;3.30;99.90
16511;DHT22;8368;48.772;8.754;2023-04-03T07:15:10;3.30;99.90
16511;DHT22;8368;48.772;8.754;2023-04-03T07:17:37;3.40;99.90
16511;DHT22;8368;48.772;8.754;2023-04-03T07:20:03;3.50;99.90
16511;DHT22;8368;48.772;8.754;2023-04-03T07:22:29;3.40;99.90
16511;DHT22;8368;48.772;8.754;2023-04-03T07:24:55;3.50;99.90
16511;DHT22;8368;48.772;8.754;2023-04-03T07:27:21;3.50;99.90
16511;DHT22;8368;48.772;8.754;2023-04-03T07:29:46;3.60;99.90
16511;DHT22;8368;48.772;8.754;2023-04-03T07:32:14;3.60;99.90
16511;DHT22;8368;48.772;8.754;2023-04-03T07:34:40;3.70;99.90
16511;DHT22;8368;48.772;8.754;2023-04-03T07:37:06;3.80;99.90
16511;DHT22;8368;48.772;8.754;2023-04-03T07:39:32;3.90;99.90
16511;DHT22;8368;48.772;8.754;2023-04-03T07:41:58;3.90;99.90
16511;DHT22;8368;48.772;8.754;2023-04-03T07:44:24;4.00;99.90
16511;DHT22;8368;48.772;8.754;2023-04-03T07:46:49;4.00;99.90
16511;DHT22;8368;48.772;8.754;2023-04-03T07:49:16;4.10;99.90
16511;DHT22;8368;48.772;8.754;2023-04-03T07:51:43;4.10;99.90
16511;DHT22;8368;48.772;8.754;2023-04-03T07:54:09;3.90;99.90
16511;DHT22;8368;48.772;8.754;2023-04-03T07:56:35;3.90;99.90
16511;DHT22;8368;48.772;8.754;2023-04-03T07:59:01;4.00;99.90
16511;DHT22;8368;48.772;8.754;2023-04-03T08:01:26;4.00;99.90
16511;DHT22;8368;48.772;8.754;2023-04-03T08:03:52;4.00;99.90
16511;DHT22;8368;48.772;8.754;2023-04-03T08:06:18;4.10;99.90
16511;DHT22;8368;48.772;8.754;2023-04-03T08:08:44;4.10;99.90
16511;DHT22;8368;48.772;8.754;2023-04-03T08:11:10;4.00;99.90
16511;DHT22;8368;48.772;8.754;2023-04-03T08:13:36;3.80;99.90
16511;DHT22;8368;48.772;8.754;2023-04-03T08:16:10;3.80;99.90
16511;DHT22;8368;48.772;8.754;2023-04-03T08:18:36;3.90;99.90
16511;DHT22;8368;48.772;8.754;2023-04-03T08:21:06;3.90;99.90
16511;DHT22;8368;48.772;8.754;2023-04-03T08:23:31;3.60;99.90
16511;DHT22;8368;48.772;8.754;2023-04-03T08:25:57;3.70;99.90
16511;DHT22;8368;48.772;8.754;2023-04-03T08:28:22;4.00;99.90
16511;DHT22;8368;48.772;8.754;2023-04-03T08:30:48;4.10;99.90
16511;DHT22;8368;48.772;8.754;2023-04-03T08:33:13;4.30;99.90
16511;DHT22;8368;48.772;8.754;2023-04-03T08:35:40;4.40;99.90
16511;DHT22;8368;48.772;8.754;2023-04-03T08:38:07;4.30;99.90
16511;DHT22;8368;48.772;8.754;2023-04-03T08:40:32;4.40;99.90
16511;DHT22;8368;48.772;8.754;2023-04-03T08:45:50;4.50;99.90
16511;DHT22;8368;48.772;8.754;2023-04-03T08:48:21;4.40;99.90
16511;DHT22;8368;48.772;8.754;2023-04-03T08:50:53;4.40;99.90
16511;DHT22;8368;48.772;8.754;2023-04-03T08:53:28;4.50;99.90
16511;DHT22;8368;48.772;8.754;2023-04-03T08:55:56;4.10;99.90
16511;DHT22;8368;48.772;8.754;2023-04-03T08:58:34;4.20;99.90
16511;DHT22;8368;48.772;8.754;2023-04-03T09:01:34;4.20;99.90
16511;DHT22;8368;48.772;8.754;2023-04-03T09:04:10;4.30;99.90
16511;DHT22;8368;48.772;8.754;2023-04-03T09:06:36;4.30;99.90
16511;DHT22;8368;48.772;8.754;2023-04-03T09:12:17;4.80;99.90
16511;DHT22;8368;48.772;8.754;2023-04-03T09:15:02;5.00;99.90
16511;DHT22;8368;48.772;8.754;2023-04-03T09:17:57;4.80;99.90
16511;DHT22;8368;48.772;8.754;2023-04-03T09:23:28;4.60;99.90
16511;DHT22;8368;48.772;8.754;2023-04-03T09:26:02;4.80;99.90
16511;DHT22;8368;48.772;8.754;2023-04-03T09:28:33;5.10;99.90
16511;DHT22;8368;48.772;8.754;2023-04-03T09:31:00;5.20;99.90
16511;DHT22;8368;48.772;8.754;2023-04-03T09:33:27;5.10;99.90
16511;DHT22;8368;48.772;8.754;2023-04-03T09:35:55;4.90;99.90
16511;DHT22;8368;48.772;8.754;2023-04-03T09:38:22;4.70;99.90
16511;DHT22;8368;48.772;8.754;2023-04-03T09:41:11;4.40;99.90
16511;DHT22;8368;48.772;8.754;2023-04-03T09:43:39;4.40;99.90
16511;DHT22;8368;48.772;8.754;2023-04-03T09:46:33;4.60;99.90
16511;DHT22;8368;48.772;8.754;2023-04-03T09:49:03;4.80;99.90
16511;DHT22;8368;48.772;8.754;2023-04-03T09:51:29;5.10;99.90
16511;DHT22;8368;48.772;8.754;2023-04-03T09:53:56;5.20;99.90
16511;DHT22;8368;48.772;8.754;2023-04-03T09:56:28;5.40;99.90
16511;DHT22;8368;48.772;8.754;2023-04-03T10:01:30;5.90;99.90
16511;DHT22;8368;48.772;8.754;2023-04-03T10:04:12;5.70;99.90
16511;DHT22;8368;48.772;8.754;2023-04-03T10:09:23;5.40;99.90
16511;DHT22;8368;48.772;8.754;2023-04-03T10:12:04;5.20;99.90
16511;DHT22;8368;48.772;8.754;2023-04-03T10:14:32;5.20;99.90
16511;DHT22;8368;48.772;8.754;2023-04-03T10:17:17;5.30;99.90
16511;DHT22;8368;48.772;8.754;2023-04-03T10:19:57;5.00;99.90
16511;DHT22;8368;48.772;8.754;2023-04-03T10:25:35;5.20;99.90
16511;DHT22;8368;48.772;8.754;2023-04-03T10:28:20;5.30;99.90
16511;DHT22;8368;48.772;8.754;2023-04-03T10:33:53;5.60;99.90
16511;DHT22;8368;48.772;8.754;2023-04-03T10:45:01;5.30;99.90
16511;DHT22;8368;48.772;8.754;2023-04-03T10:53:31;4.90;99.90
16511;DHT22;8368;48.772;8.754;2023-04-03T10:58:34;5.20;99.90
16511;DHT22;8368;48.772;8.754;2023-04-03T11:01:09;5.30;99.90
16511;DHT22;8368;48.772;8.754;2023-04-03T11:03:43;5.40;99.90
16511;DHT22;8368;48.772;8.754;2023-04-03T11:06:11;5.30;99.90
16511;DHT22;8368;48.772;8.754;2023-04-03T11:08:51;5.30;99.90
16511;DHT22;8368;48.772;8.754;2023-04-03T11:11:25;5.40;99.90
16511;DHT22;8368;48.772;8.754;2023-04-03T11:14:03;5.60;99.90
16511;DHT22;8368;48.772;8.754;2023-04-03T11:16:33;5.80;99.90
16511;DHT22;8368;48.772;8.754;2023-04-03T11:24:25;5.60;99.90
16511;DHT22;8368;48.772;8.754;2023-04-03T11:26:54;5.40;99.90
16511;DHT22;8368;48.772;8.754;2023-04-03T11:29:29;5.30;99.90
16511;DHT22;8368;48.772;8.754;2023-04-03T11:35:17;5.40;99.90
16511;DHT22;8368;48.772;8.754;2023-04-03T11:37:47;5.70;99.90
16511;DHT22;8368;48.772;8.754;2023-04-03T11:42:47;5.70;99.90
16511;DHT22;8368;48.772;8.754;2023-04-03T11:48:00;5.30;99.90
16511;DHT22;8368;48.772;8.754;2023-04-03T12:05:50;5.00;99.90
16511;DHT22;8368;48.772;8.754;2023-04-03T12:08:27;5.00;99.90
16511;DHT22;8368;48.772;8.754;2023-04-03T12:16:27;5.20;99.90
16511;DHT22;8368;48.772;8.754;2023-04-03T12:22:04;5.30;99.90
16511;DHT22;8368;48.772;8.754;2023-04-03T12:24:30;5.10;99.90
16511;DHT22;8368;48.772;8.754;2023-04-03T12:29:53;5.00;99.90
16511;DHT22;8368;48.772;8.754;2023-04-03T12:48:31;5.20;99.90
16511;DHT22;8368;48.772;8.754;2023-04-03T12:50:58;5.30;99.90
16511;DHT22;8368;48.772;8.754;2023-04-03T12:53:29;5.40;99.90
16511;DHT22;8368;48.772;8.754;2023-04-03T12:56:20;5.40;99.90
16511;DHT22;8368;48.772;8.754;2023-04-03T12:58:47;5.30;99.90
16511;DHT22;8368;48.772;8.754;2023-04-03T13:01:16;5.40;99.90
16511;DHT22;8368;48.772;8.754;2023-04-03T13:03:45;5.60;99.90
16511;DHT22;8368;48.772;8.754;2023-04-03T13:06:22;5.70;99.90
16511;DHT22;8368;48.772;8.754;2023-04-03T13:08:56;5.90;99.90
16511;DHT22;8368;48.772;8.754;2023-04-03T13:11:24;6.20;99.90
16511;DHT22;8368;48.772;8.754;2023-04-03T13:14:01;6.30;99.90
16511;DHT22;8368;48.772;8.754;2023-04-03T13:16:30;6.40;99.90
16511;DHT22;8368;48.772;8.754;2023-04-03T13:18:57;6.40;99.90
16511;DHT22;8368;48.772;8.754;2023-04-03T13:21:28;6.50;99.90
16511;DHT22;8368;48.772;8.754;2023-04-03T13:23:58;6.50;99.90
16511;DHT22;8368;48.772;8.754;2023-04-03T13:26:28;6.00;99.90
16511;DHT22;8368;48.772;8.754;2023-04-03T13:28:57;5.80;99.90
16511;DHT22;8368;48.772;8.754;2023-04-03T13:31:30;6.00;99.90
16511;DHT22;8368;48.772;8.754;2023-04-03T13:36:38;6.40;99.90
16511;DHT22;8368;48.772;8.754;2023-04-03T13:39:23;6.10;99.90
16511;DHT22;8368;48.772;8.754;2023-04-03T13:41:54;6.20;99.90
16511;DHT22;8368;48.772;8.754;2023-04-03T13:44:32;6.20;99.90
16511;DHT22;8368;48.772;8.754;2023-04-03T13:47:18;6.40;99.90
16511;DHT22;8368;48.772;8.754;2023-04-03T13:49:59;6.30;99.90
16511;DHT22;8368;48.772;8.754;2023-04-03T13:52:31;6.40;99.90
16511;DHT22;8368;48.772;8.754;2023-04-03T13:55:30;6.60;99.90
16511;DHT22;8368;48.772;8.754;2023-04-03T14:01:34;6.50;99.90
16511;DHT22;8368;48.772;8.754;2023-04-03T14:03:56;6.40;99.90
16511;DHT22;8368;48.772;8.754;2023-04-03T14:06:23;6.00;99.90
16511;DHT22;8368;48.772;8.754;2023-04-03T14:08:49;5.50;99.90
16511;DHT22;8368;48.772;8.754;2023-04-03T14:11:28;5.50;99.90
16511;DHT22;8368;48.772;8.754;2023-04-03T14:13:56;5.60;99.90
16511;DHT22;8368;48.772;8.754;2023-04-03T14:16:27;5.30;99.90
16511;DHT22;8368;48.772;8.754;2023-04-03T14:18:53;5.20;99.90
16511;DHT22;8368;48.772;8.754;2023-04-03T14:21:20;5.40;99.90
16511;DHT22;8368;48.772;8.754;2023-04-03T14:23:47;5.50;99.90
16511;DHT22;8368;48.772;8.754;2023-04-03T14:26:16;5.60;99.90
16511;DHT22;8368;48.772;8.754;2023-04-03T14:28:43;5.70;99.90
16511;DHT22;8368;48.772;8.754;2023-04-03T14:31:10;5.70;99.90
16511;DHT22;8368;48.772;8.754;2023-04-03T14:33:36;5.80;99.90
16511;DHT22;8368;48.772;8.754;2023-04-03T14:38:36;5.80;99.90
16511;DHT22;8368;48.772;8.754;2023-04-03T14:41:02;5.90;99.90
16511;DHT22;8368;48.772;8.754;2023-04-03T14:43:28;6.00;99.90
16511;DHT22;8368;48.772;8.754;2023-04-03T14:45:53;6.00;99.90
16511;DHT22;8368;48.772;8.754;2023-04-03T14:48:23;5.90;99.90
16511;DHT22;8368;48.772;8.754;2023-04-03T14:50:50;5.90;99.90
16511;DHT22;8368;48.772;8.754;2023-04-03T14:53:18;5.80;99.90
16511;DHT22;8368;48.772;8.754;2023-04-03T14:55:48;5.80;99.90
16511;DHT22;8368;48.772;8.754;2023-04-03T14:58:17;5.90;99.90
16511;DHT22;8368;48.772;8.754;2023-04-03T15:00:43;5.80;99.90
16511;DHT22;8368;48.772;8.754;2023-04-03T15:03:18;5.70;99.90
16511;DHT22;8368;48.772;8.754;2023-04-03T15:05:45;5.60;99.90
16511;DHT22;8368;48.772;8.754;2023-04-03T15:08:25;5.60;99.90
16511;DHT22;8368;48.772;8.754;2023-04-03T15:10:52;5.50;99.90
16511;DHT22;8368;48.772;8.754;2023-04-03T15:13:19;5.60;99.90
16511;DHT22;8368;48.772;8.754;2023-04-03T15:15:45;5.60;99.90
16511;DHT22;8368;48.772;8.754;2023-04-03T15:18:18;5.60;99.90
16511;DHT22;8368;48.772;8.754;2023-04-03T15:20:44;5.70;99.90
16511;DHT22;8368;48.772;8.754;2023-04-03T15:23:15;5.70;99.90
16511;DHT22;8368;48.772;8.754;2023-04-03T15:25:48;5.70;99.90
16511;DHT22;8368;48.772;8.754;2023-04-03T15:28:40;5.80;99.90
16511;DHT22;8368;48.772;8.754;2023-04-03T15:31:07;5.90;99.90
16511;DHT22;8368;48.772;8.754;2023-04-03T15:33:34;5.60;99.90
16511;DHT22;8368;48.772;8.754;2023-04-03T15:36:00;5.70;99.90
16511;DHT22;8368;48.772;8.754;2023-04-03T15:38:26;5.70;99.90
16511;DHT22;8368;48.772;8.754;2023-04-03T15:40:51;5.70;99.90
16511;DHT22;8368;48.772;8.754;2023-04-03T15:43:17;5.60;99.90
16511;DHT22;8368;48.772;8.754;2023-04-03T15:45:44;5.50;99.90
16511;DHT22;8368;48.772;8.754;2023-04-03T15:48:10;5.50;99.90
16511;DHT22;8368;48.772;8.754;2023-04-03T15:50:37;5.40;99.90
16511;DHT22;8368;48.772;8.754;2023-04-03T15:53:02;5.30;99.90
16511;DHT22;8368;48.772;8.754;2023-04-03T15:55:31;5.40;99.90
16511;DHT22;8368;48.772;8.754;2023-04-03T15:57:57;5.50;99.90
16511;DHT22;8368;48.772;8.754;2023-04-03T16:00:24;5.50;99.90
16511;DHT22;8368;48.772;8.754;2023-04-03T16:02:53;5.40;99.90
16511;DHT22;8368;48.772;8.754;2023-04-03T16:05:20;5.40;99.90
16511;DHT22;8368;48.772;8.754;2023-04-03T16:07:46;5.50;99.90
16511;DHT22;8368;48.772;8.754;2023-04-03T16:10:14;5.40;99.90
16511;DHT22;8368;48.772;8.754;2023-04-03T16:12:40;5.30;99.90
16511;DHT22;8368;48.772;8.754;2023-04-03T16:15:07;5.40;99.90
16511;DHT22;8368;48.772;8.754;2023-04-03T16:17:34;5.50;99.90
16511;DHT22;8368;48.772;8.754;2023-04-03T16:20:00;5.40;99.90
16511;DHT22;8368;48.772;8.754;2023-04-03T16:22:27;5.50;99.90
16511;DHT22;8368;48.772;8.754;2023-04-03T16:24:53;5.60;99.90
16511;DHT22;8368;48.772;8.754;2023-04-03T16:27:20;5.50;99.90
16511;DHT22;8368;48.772;8.754;2023-04-03T16:29:45;5.50;99.90
16511;DHT22;8368;48.772;8.754;2023-04-03T16:32:11;5.40;99.90
16511;DHT22;8368;48.772;8.754;2023-04-03T16:34:38;5.10;99.90
16511;DHT22;8368;48.772;8.754;2023-04-03T16:37:03;5.00;99.90
16511;DHT22;8368;48.772;8.754;2023-04-03T16:39:29;5.00;99.90
16511;DHT22;8368;48.772;8.754;2023-04-03T16:41:55;5.00;99.90
16511;DHT22;8368;48.772;8.754;2023-04-03T16:44:20;5.00;99.90
16511;DHT22;8368;48.772;8.754;2023-04-03T16:46:46;4.90;99.90
16511;DHT22;8368;48.772;8.754;2023-04-03T16:49:11;4.90;99.90
16511;DHT22;8368;48.772;8.754;2023-04-03T16:51:37;4.70;99.90
16511;DHT22;8368;48.772;8.754;2023-04-03T16:54:02;4.60;99.90
16511;DHT22;8368;48.772;8.754;2023-04-03T16:56:28;4.50;99.90
16511;DHT22;8368;48.772;8.754;2023-04-03T16:58:54;4.40;99.90
16511;DHT22;8368;48.772;8.754;2023-04-03T17:01:21;4.30;99.90
16511;DHT22;8368;48.772;8.754;2023-04-03T17:03:47;4.30;99.90
16511;DHT22;8368;48.772;8.754;2023-04-03T17:06:17;4.30;99.90
16511;DHT22;8368;48.772;8.754;2023-04-03T17:08:47;4.30;99.90
16511;DHT22;8368;48.772;8.754;2023-04-03T17:11:14;4.20;99.90
16511;DHT22;8368;48.772;8.754;2023-04-03T17:13:40;4.20;99.90
16511;DHT22;8368;48.772;8.754;2023-04-03T17:16:08;4.20;99.90
16511;DHT22;8368;48.772;8.754;2023-04-03T17:18:35;4.20;99.90
16511;DHT22;8368;48.772;8.754;2023-04-03T17:21:02;4.20;99.90
16511;DHT22;8368;48.772;8.754;2023-04-03T17:23:28;4.20;99.90
16511;DHT22;8368;48.772;8.754;2023-04-03T17:25:54;4.30;99.90
16511;DHT22;8368;48.772;8.754;2023-04-03T17:28:21;4.30;99.90
16511;DHT22;8368;48.772;8.754;2023-04-03T17:30:52;4.20;99.90
16511;DHT22;8368;48.772;8.754;2023-04-03T17:33:18;4.20;99.90
16511;DHT22;8368;48.772;8.754;2023-04-03T17:35:43;4.20;99.90
16511;DHT22;8368;48.772;8.754;2023-04-03T17:38:09;4.20;99.90
16511;DHT22;8368;48.772;8.754;2023-04-03T17:40:34;4.10;99.90
16511;DHT22;8368;48.772;8.754;2023-04-03T17:43:01;4.10;99.90
16511;DHT22;8368;48.772;8.754;2023-04-03T17:45:26;4.10;99.90
16511;DHT22;8368;48.772;8.754;2023-04-03T17:47:52;4.10;99.90
16511;DHT22;8368;48.772;8.754;2023-04-03T17:50:18;4.10;99.90
16511;DHT22;8368;48.772;8.754;2023-04-03T17:52:44;4.00;99.90
16511;DHT22;8368;48.772;8.754;2023-04-03T17:55:09;4.00;99.90
16511;DHT22;8368;48.772;8.754;2023-04-03T17:57:35;4.00;99.90
16511;DHT22;8368;48.772;8.754;2023-04-03T18:00:00;3.90;99.90